createdAt,value
2023-01-31T00:02:00.611Z,99011.97
2023-01-31T00:04:30.321Z,99013.56
2023-01-31T00:06:58.391Z,99022.91
2023-01-31T00:09:26.527Z,99014.53
2023-01-31T00:11:54.767Z,99028.09
2023-01-31T00:14:23.147Z,99019.88
2023-01-31T00:16:53.288Z,99019.25
2023-01-31T00:19:21.845Z,99022.25
2023-01-31T00:21:51.448Z,99022.88
2023-01-31T00:24:19.660Z,99018.81
2023-01-31T00:26:48.731Z,99019.25
2023-01-31T00:29:17.088Z,99017.53
2023-01-31T00:31:45.312Z,99018.94
2023-01-31T00:34:13.510Z,99020.84
2023-01-31T00:36:42.088Z,99011.38
2023-01-31T00:39:12.473Z,99013.09
2023-01-31T00:41:41.049Z,99011.69
2023-01-31T00:44:09.411Z,99008.22
2023-01-31T00:46:37.816Z,99002.09
2023-01-31T00:49:06.516Z,99005.25
2023-01-31T00:51:35.228Z,98993.09
2023-01-31T00:54:03.491Z,98997.50
2023-01-31T00:56:33.130Z,99007.44
2023-01-31T00:59:01.167Z,99011.69
2023-01-31T01:01:30.632Z,99015.31
2023-01-31T01:03:59.415Z,99018.47
2023-01-31T01:06:28.490Z,99012.47
2023-01-31T01:08:59.978Z,99023.84
2023-01-31T01:11:30.349Z,99022.09
2023-01-31T01:14:01.806Z,99029.81
2023-01-31T01:16:33.555Z,99020.69
2023-01-31T01:19:03.162Z,99020.34
2023-01-31T01:21:32.567Z,99018.13
2023-01-31T01:24:02.762Z,99017.81
2023-01-31T01:26:33.299Z,99020.16
2023-01-31T01:29:03.882Z,99024.28
2023-01-31T01:31:32.573Z,99023.47
2023-01-31T01:34:04.014Z,99015.09
2023-01-31T01:36:34.604Z,99019.34
2023-01-31T01:39:03.216Z,98999.34
2023-01-31T01:41:33.568Z,99013.53
2023-01-31T01:44:04.433Z,98996.19
2023-01-31T01:46:37.192Z,99005.16
2023-01-31T01:49:13.581Z,99004.84
2023-01-31T01:51:43.414Z,98994.44
2023-01-31T01:54:17.309Z,98994.25
2023-01-31T01:56:50.721Z,98994.75
2023-01-31T01:59:23.585Z,98997.91
2023-01-31T02:01:52.403Z,98987.16
2023-01-31T02:04:24.237Z,98995.53
2023-01-31T02:06:53.949Z,98983.66
2023-01-31T02:09:31.685Z,98972.47
2023-01-31T02:12:00.463Z,98963.28
2023-01-31T02:14:30.532Z,98965.34
2023-01-31T02:16:59.119Z,98966.28
2023-01-31T02:19:37.096Z,98966.28
2023-01-31T02:22:21.250Z,98962.44
2023-01-31T02:25:22.768Z,98965.13
2023-01-31T02:28:21.862Z,98959.44
2023-01-31T02:31:20.483Z,98964.31
2023-01-31T02:33:54.152Z,98965.91
2023-01-31T02:36:38.294Z,98958.75
2023-01-31T02:39:15.299Z,98965.50
2023-01-31T02:41:50.710Z,98963.81
2023-01-31T02:44:45.917Z,98961.13
2023-01-31T02:47:26.173Z,98957.09
2023-01-31T02:50:00.354Z,98957.09
2023-01-31T02:52:39.136Z,98953.22
2023-01-31T02:55:32.718Z,98950.53
2023-01-31T02:58:03.466Z,98949.53
2023-01-31T03:00:34.832Z,98955.47
2023-01-31T03:03:06.602Z,98952.94
2023-01-31T03:05:36.599Z,98961.00
2023-01-31T03:08:08.191Z,98953.53
2023-01-31T03:11:01.956Z,98955.41
2023-01-31T03:13:45.325Z,98943.56
2023-01-31T03:16:39.042Z,98941.69
2023-01-31T03:19:14.883Z,98946.72
2023-01-31T03:21:48.867Z,98965.97
2023-01-31T03:24:18.318Z,98959.50
2023-01-31T03:26:47.818Z,98960.16
2023-01-31T03:29:17.992Z,98962.69
2023-01-31T03:31:53.943Z,98953.06
2023-01-31T03:34:22.259Z,98967.28
2023-01-31T03:36:57.155Z,98963.22
2023-01-31T03:39:36.199Z,98964.53
2023-01-31T03:42:07.806Z,98968.19
2023-01-31T03:44:44.844Z,98971.84
2023-01-31T03:47:20.230Z,98969.22
2023-01-31T03:49:51.088Z,98980.94
2023-01-31T03:52:26.155Z,98982.69
2023-01-31T03:54:59.749Z,98977.63
2023-01-31T03:57:34.417Z,98981.78
2023-01-31T04:00:06.794Z,98985.78
2023-01-31T04:02:37.617Z,98978.22
2023-01-31T04:05:10.396Z,98991.31
2023-01-31T04:07:41.549Z,98997.50
2023-01-31T04:10:14.313Z,98993.22
2023-01-31T04:12:42.971Z,98990.41
2023-01-31T04:15:12.536Z,98997.66
2023-01-31T04:17:40.878Z,98991.03
2023-01-31T04:20:10.856Z,99004.28
2023-01-31T04:22:40.966Z,99017.09
2023-01-31T04:25:10.289Z,99004.66
2023-01-31T04:27:39.240Z,99021.41
2023-01-31T04:30:10.852Z,99013.34
2023-01-31T04:32:38.972Z,99023.75
2023-01-31T04:35:07.766Z,99016.34
2023-01-31T04:37:35.935Z,99021.09
2023-01-31T04:40:06.406Z,99025.69
2023-01-31T04:42:34.579Z,99031.53
2023-01-31T04:45:02.613Z,99042.25
2023-01-31T04:47:30.618Z,99038.47
2023-01-31T04:49:58.682Z,99046.34
2023-01-31T04:52:26.918Z,99040.53
2023-01-31T04:54:55.004Z,99048.25
2023-01-31T04:57:24.756Z,99055.19
2023-01-31T04:59:52.952Z,99050.31
2023-01-31T05:02:21.182Z,99045.28
2023-01-31T05:04:49.420Z,99057.72
2023-01-31T05:07:17.494Z,99061.81
2023-01-31T05:09:45.690Z,99050.47
2023-01-31T05:12:13.805Z,99043.22
2023-01-31T05:14:43.833Z,99035.31
2023-01-31T05:17:12.087Z,99048.88
2023-01-31T05:19:40.465Z,99048.44
2023-01-31T05:22:08.547Z,99048.72
2023-01-31T05:24:37.427Z,99044.78
2023-01-31T05:27:05.920Z,99044.00
2023-01-31T05:29:34.571Z,99056.75
2023-01-31T05:32:04.598Z,99047.63
2023-01-31T05:34:33.971Z,99060.84
2023-01-31T05:37:03.732Z,99067.34
2023-01-31T05:39:32.392Z,99060.06
2023-01-31T05:42:00.687Z,99049.53
2023-01-31T05:44:29.437Z,99066.41
2023-01-31T05:46:57.737Z,99055.97
2023-01-31T05:49:27.672Z,99060.25
2023-01-31T05:52:04.049Z,99042.59
2023-01-31T05:54:33.512Z,99055.34
2023-01-31T05:57:01.727Z,99058.19
2023-01-31T05:59:32.309Z,99062.59
2023-01-31T06:02:01.027Z,99075.34
2023-01-31T06:04:30.886Z,99083.38
2023-01-31T06:06:59.304Z,99088.41
2023-01-31T06:09:27.331Z,99089.50
2023-01-31T06:11:55.543Z,99098.34
2023-01-31T06:14:24.067Z,99097.72
2023-01-31T06:16:52.355Z,99099.94
2023-01-31T06:19:25.385Z,99094.13
2023-01-31T06:21:54.869Z,99098.69
2023-01-31T06:24:23.049Z,99099.47
2023-01-31T06:26:51.165Z,99108.44
2023-01-31T06:29:19.513Z,99099.97
2023-01-31T06:31:49.023Z,99106.44
2023-01-31T06:34:17.360Z,99106.75
2023-01-31T06:36:45.410Z,99105.50
2023-01-31T06:39:15.889Z,99119.38
2023-01-31T06:41:44.035Z,99120.34
2023-01-31T06:44:12.144Z,99120.16
2023-01-31T06:46:41.728Z,99128.69
2023-01-31T06:49:09.920Z,99123.31
2023-01-31T06:51:37.936Z,99125.22
2023-01-31T06:54:06.307Z,99131.38
2023-01-31T06:56:35.816Z,99137.19
2023-01-31T06:59:04.105Z,99134.69
2023-01-31T07:01:32.777Z,99148.09
2023-01-31T07:04:01.064Z,99148.56
2023-01-31T07:06:29.543Z,99145.09
2023-01-31T07:08:58.049Z,99155.00
2023-01-31T07:11:26.240Z,99144.09
2023-01-31T07:13:55.774Z,99156.88
2023-01-31T07:16:25.801Z,99157.19
2023-01-31T07:18:54.589Z,99163.84
2023-01-31T07:21:26.426Z,99175.34
2023-01-31T07:23:54.681Z,99170.78
2023-01-31T07:26:22.911Z,99170.31
2023-01-31T07:28:51.687Z,99178.16
2023-01-31T07:31:51.662Z,99188.13
2023-01-31T07:34:23.633Z,99179.25
2023-01-31T07:36:52.383Z,99185.84
2023-01-31T07:39:21.029Z,99176.72
2023-01-31T07:41:49.202Z,99166.88
2023-01-31T07:44:24.616Z,99185.53
2023-01-31T07:46:56.565Z,99188.69
2023-01-31T07:49:24.846Z,99188.31
2023-01-31T07:51:52.956Z,99189.41
2023-01-31T07:54:21.121Z,99183.72
2023-01-31T07:56:49.226Z,99185.91
2023-01-31T07:59:17.829Z,99199.19
2023-01-31T08:02:05.777Z,99191.59
2023-01-31T08:04:36.741Z,99191.72
2023-01-31T08:07:06.863Z,99197.25
2023-01-31T08:09:35.639Z,99193.00
2023-01-31T08:12:03.700Z,99201.97
2023-01-31T08:14:33.042Z,99201.78
2023-01-31T08:17:01.260Z,99208.84
2023-01-31T08:19:29.698Z,99210.56
2023-01-31T08:21:59.310Z,99212.00
2023-01-31T08:24:27.829Z,99197.63
2023-01-31T08:26:56.245Z,99206.28
2023-01-31T08:29:25.050Z,99206.16
2023-01-31T08:31:53.979Z,99200.25
2023-01-31T08:34:23.648Z,99208.16
2023-01-31T08:36:52.047Z,99207.84
2023-01-31T08:39:22.043Z,99208.16
2023-01-31T08:41:50.189Z,99215.91
2023-01-31T08:44:18.236Z,99213.34
2023-01-31T08:46:47.128Z,99216.44
2023-01-31T08:49:15.454Z,99219.63
2023-01-31T08:51:45.359Z,99212.03
2023-01-31T08:54:13.977Z,99213.09
2023-01-31T08:56:43.694Z,99215.47
2023-01-31T08:59:12.800Z,99214.47
2023-01-31T09:01:42.565Z,99221.91
2023-01-31T09:04:10.925Z,99224.59
2023-01-31T09:06:39.960Z,99215.72
2023-01-31T09:09:08.239Z,99228.94
2023-01-31T09:11:36.865Z,99213.94
2023-01-31T09:14:06.940Z,99219.97
2023-01-31T09:16:35.175Z,99218.66
2023-01-31T09:19:04.560Z,99220.13
2023-01-31T09:21:33.463Z,99222.78
2023-01-31T09:24:04.141Z,99225.53
2023-01-31T09:26:33.295Z,99212.56
2023-01-31T09:29:02.445Z,99210.34
2023-01-31T09:31:32.426Z,99210.66
2023-01-31T09:34:01.057Z,99197.97
2023-01-31T09:36:30.208Z,99203.47
2023-01-31T09:38:59.515Z,99206.50
2023-01-31T09:41:36.437Z,99201.88
2023-01-31T09:44:08.734Z,99198.38
2023-01-31T09:46:42.418Z,99187.97
2023-01-31T09:49:22.395Z,99191.03
2023-01-31T09:51:56.444Z,99184.19
2023-01-31T09:54:30.811Z,99194.09
2023-01-31T09:57:10.379Z,99170.66
2023-01-31T09:59:49.994Z,99170.13
2023-01-31T10:02:48.908Z,99172.97
2023-01-31T10:05:32.227Z,99182.06
2023-01-31T10:08:10.055Z,99167.56
2023-01-31T10:10:40.903Z,99171.19
2023-01-31T10:13:18.688Z,99150.97
2023-01-31T10:15:52.397Z,99147.84
2023-01-31T10:18:26.054Z,99148.97
2023-01-31T10:20:59.410Z,99139.97
2023-01-31T10:23:32.280Z,99148.59
2023-01-31T10:26:02.960Z,99146.25
2023-01-31T10:28:51.298Z,99147.38
2023-01-31T10:31:31.989Z,99151.88
2023-01-31T10:34:08.570Z,99139.75
2023-01-31T10:36:42.247Z,99140.13
2023-01-31T10:39:19.127Z,99140.53
2023-01-31T10:42:04.858Z,99128.66
2023-01-31T10:44:43.223Z,99141.78
2023-01-31T10:47:15.073Z,99128.53
2023-01-31T10:49:47.685Z,99127.28
2023-01-31T10:52:31.430Z,99126.75
2023-01-31T10:55:12.343Z,99125.97
2023-01-31T10:57:40.892Z,99126.16
2023-01-31T11:00:18.992Z,99126.25
2023-01-31T11:02:47.626Z,99116.72
2023-01-31T11:05:22.326Z,99121.75
2023-01-31T11:07:52.070Z,99128.97
2023-01-31T11:10:25.461Z,99127.59
2023-01-31T11:12:55.963Z,99118.28
2023-01-31T11:15:28.655Z,99112.19
2023-01-31T11:18:00.928Z,99125.09
2023-01-31T11:20:33.995Z,99115.59
2023-01-31T11:23:03.716Z,99127.59
2023-01-31T11:25:37.138Z,99113.41
2023-01-31T11:28:20.121Z,99117.53
2023-01-31T11:30:52.122Z,99110.63
2023-01-31T11:33:40.938Z,99114.84
2023-01-31T11:36:12.517Z,99124.75
2023-01-31T11:38:41.172Z,99112.47
2023-01-31T11:41:34.857Z,99125.09
2023-01-31T11:44:13.696Z,99111.16
2023-01-31T11:46:54.627Z,99110.19
2023-01-31T11:49:30.091Z,99099.28
2023-01-31T11:52:14.706Z,99108.97
2023-01-31T11:54:47.584Z,99101.44
2023-01-31T11:57:18.099Z,99097.19
2023-01-31T11:59:46.732Z,99093.25
2023-01-31T12:02:27.389Z,99107.28
2023-01-31T12:04:57.067Z,99083.50
2023-01-31T12:07:30.499Z,99088.53
2023-01-31T12:09:58.693Z,99096.63
2023-01-31T12:12:32.491Z,99101.56
2023-01-31T12:15:17.373Z,99096.19
2023-01-31T12:17:50.571Z,99110.47
2023-01-31T12:20:29.102Z,99106.19
2023-01-31T12:23:08.664Z,99115.03
2023-01-31T12:25:56.704Z,99131.00
2023-01-31T12:28:47.808Z,99127.63
2023-01-31T12:31:32.748Z,99118.41
2023-01-31T12:34:20.897Z,99123.38
2023-01-31T12:37:02.093Z,99128.06
2023-01-31T12:39:51.505Z,99132.22
2023-01-31T12:42:44.066Z,99134.31
2023-01-31T12:45:26.869Z,99129.59
2023-01-31T12:48:33.607Z,99134.31
2023-01-31T12:51:11.283Z,99128.16
2023-01-31T12:53:54.753Z,99139.69
2023-01-31T12:56:42.684Z,99140.16
2023-01-31T12:59:24.089Z,99145.53
2023-01-31T13:01:59.600Z,99136.00
2023-01-31T13:04:43.895Z,99142.50
2023-01-31T13:07:23.101Z,99148.44
2023-01-31T13:09:56.777Z,99152.28
2023-01-31T13:12:30.534Z,99158.81
2023-01-31T13:15:05.273Z,99150.34
2023-01-31T13:17:36.894Z,99143.03
2023-01-31T13:20:25.462Z,99140.09
2023-01-31T13:22:57.229Z,99131.22
2023-01-31T13:25:36.428Z,99145.91
2023-01-31T13:28:14.270Z,99143.56
2023-01-31T13:30:47.367Z,99138.50
2023-01-31T13:33:26.058Z,99142.81
2023-01-31T13:36:05.407Z,99147.19
2023-01-31T13:38:40.636Z,99147.81
2023-01-31T13:41:15.415Z,99150.34
2023-01-31T13:43:45.043Z,99143.50
2023-01-31T13:46:18.314Z,99154.72
2023-01-31T13:48:54.400Z,99154.03
2023-01-31T13:51:26.597Z,99154.31
2023-01-31T13:54:01.146Z,99153.41
2023-01-31T13:56:33.569Z,99154.97
2023-01-31T13:59:09.111Z,99146.31
2023-01-31T14:01:45.562Z,99151.94
2023-01-31T14:04:41.614Z,99165.25
2023-01-31T14:07:29.065Z,99155.34
2023-01-31T14:10:33.942Z,99152.19
2023-01-31T14:13:48.240Z,99158.72
2023-01-31T14:16:55.876Z,99164.69
2023-01-31T14:23:33.999Z,99174.88
2023-01-31T14:26:02.312Z,99180.31
2023-01-31T14:28:31.705Z,99173.56
2023-01-31T14:31:16.202Z,99167.59
2023-01-31T14:33:50.798Z,99172.19
2023-01-31T14:37:10.501Z,99181.47
2023-01-31T14:40:05.195Z,99180.88
2023-01-31T14:43:13.898Z,99203.25
2023-01-31T14:46:21.084Z,99198.34
2023-01-31T14:49:35.813Z,99211.06
2023-01-31T14:52:46.049Z,99215.72
2023-01-31T14:55:37.116Z,99211.97
2023-01-31T14:58:09.509Z,99217.38
2023-01-31T15:06:52.128Z,99227.25
2023-01-31T15:09:39.173Z,99227.09
2023-01-31T15:12:46.163Z,99243.88
2023-01-31T15:15:26.294Z,99242.78
2023-01-31T15:17:58.018Z,99254.19
2023-01-31T15:20:36.909Z,99251.53
2023-01-31T15:23:09.290Z,99265.63
2023-01-31T15:25:46.612Z,99256.72
2023-01-31T15:28:19.129Z,99257.72
2023-01-31T15:30:52.789Z,99268.47
2023-01-31T15:33:28.424Z,99283.63
2023-01-31T15:36:00.454Z,99280.97
2023-01-31T15:38:33.924Z,99271.81
2023-01-31T15:41:24.293Z,99280.84
2023-01-31T15:43:54.549Z,99278.31
2023-01-31T15:46:32.726Z,99285.56
2023-01-31T15:49:03.153Z,99296.63
2023-01-31T15:51:31.822Z,99288.88
2023-01-31T15:54:07.140Z,99298.81
2023-01-31T15:56:41.647Z,99309.13
2023-01-31T15:59:14.444Z,99311.31
2023-01-31T16:01:49.893Z,99306.72
2023-01-31T16:04:18.928Z,99313.22
2023-01-31T16:06:48.167Z,99324.25
2023-01-31T16:09:27.262Z,99328.53
2023-01-31T16:11:56.297Z,99332.94
2023-01-31T16:14:26.140Z,99327.91
2023-01-31T16:16:57.320Z,99331.22
2023-01-31T16:19:29.251Z,99341.00
2023-01-31T16:21:59.164Z,99339.75
2023-01-31T16:24:29.973Z,99344.03
2023-01-31T16:27:01.891Z,99345.41
2023-01-31T16:29:51.139Z,99350.16
2023-01-31T16:32:24.545Z,99341.00
2023-01-31T16:35:02.800Z,99357.41
2023-01-31T16:37:40.425Z,99360.56
2023-01-31T16:40:21.411Z,99366.09
2023-01-31T16:42:50.419Z,99362.63
2023-01-31T16:45:34.298Z,99367.00
2023-01-31T16:48:24.883Z,99371.75
2023-01-31T16:50:54.678Z,99360.06
2023-01-31T16:53:33.906Z,99361.00
2023-01-31T16:56:21.475Z,99376.94
2023-01-31T16:58:59.408Z,99379.75
2023-01-31T17:01:34.942Z,99379.59
2023-01-31T17:04:18.282Z,99376.25
2023-01-31T17:06:51.392Z,99385.38
2023-01-31T17:09:23.843Z,99387.13
2023-01-31T17:11:56.368Z,99386.50
2023-01-31T17:14:25.303Z,99383.16
2023-01-31T17:16:54.484Z,99387.75
2023-01-31T17:19:23.535Z,99387.41
2023-01-31T17:21:53.105Z,99391.97
2023-01-31T17:24:23.625Z,99390.19
2023-01-31T17:26:54.113Z,99387.66
2023-01-31T17:29:23.529Z,99393.50
2023-01-31T17:31:52.084Z,99398.25
2023-01-31T17:34:20.888Z,99400.00
2023-01-31T17:36:49.331Z,99401.41
2023-01-31T17:39:18.027Z,99402.69
2023-01-31T17:41:47.538Z,99412.50
2023-01-31T17:44:17.761Z,99410.59
2023-01-31T17:46:46.464Z,99411.25
2023-01-31T17:49:15.042Z,99410.59
2023-01-31T17:51:45.550Z,99418.19
2023-01-31T17:54:14.396Z,99414.88
2023-01-31T17:56:42.972Z,99416.00
2023-01-31T17:59:21.689Z,99418.53
2023-01-31T18:01:56.477Z,99419.97
2023-01-31T18:04:24.770Z,99417.44
2023-01-31T18:06:53.519Z,99425.34
2023-01-31T18:09:21.977Z,99426.94
2023-01-31T18:11:52.411Z,99425.34
2023-01-31T18:14:20.695Z,99432.78
2023-01-31T18:16:51.629Z,99432.00
2023-01-31T18:19:21.802Z,99443.50
2023-01-31T18:21:55.030Z,99440.34
2023-01-31T18:24:24.291Z,99438.16
2023-01-31T18:26:53.150Z,99438.94
2023-01-31T18:29:23.403Z,99437.66
2023-01-31T18:31:51.705Z,99439.75
2023-01-31T18:34:21.547Z,99438.28
2023-01-31T18:36:50.055Z,99448.69
2023-01-31T18:39:19.020Z,99446.91
2023-01-31T18:41:51.799Z,99447.22
2023-01-31T18:44:20.833Z,99442.94
2023-01-31T18:47:02.927Z,99442.47
2023-01-31T18:49:33.599Z,99446.88
2023-01-31T18:52:02.250Z,99452.84
2023-01-31T18:54:31.275Z,99443.69
2023-01-31T18:57:00.289Z,99454.44
2023-01-31T18:59:29.008Z,99460.13
2023-01-31T19:01:57.468Z,99470.63
2023-01-31T19:04:26.093Z,99469.13
2023-01-31T19:06:58.950Z,99474.81
2023-01-31T19:09:27.260Z,99469.13
2023-01-31T19:11:55.621Z,99477.28
2023-01-31T19:14:23.928Z,99478.69
2023-01-31T19:16:52.344Z,99477.28
2023-01-31T19:19:21.039Z,99477.41
2023-01-31T19:21:49.252Z,99476.16
2023-01-31T19:24:23.824Z,99478.16
2023-01-31T19:26:52.356Z,99482.84
2023-01-31T19:29:20.861Z,99490.16
2023-01-31T19:31:49.704Z,99497.88
2023-01-31T19:34:18.012Z,99492.84
2023-01-31T19:36:46.861Z,99497.69
2023-01-31T19:39:15.305Z,99500.06
2023-01-31T19:41:44.997Z,99496.75
2023-01-31T19:44:14.038Z,99503.56
2023-01-31T19:46:44.127Z,99503.25
2023-01-31T19:49:13.268Z,99506.84
2023-01-31T19:51:42.536Z,99503.84
2023-01-31T19:54:15.740Z,99504.63
2023-01-31T19:56:48.238Z,99510.78
2023-01-31T19:59:20.024Z,99510.63
2023-01-31T20:01:48.936Z,99520.69
2023-01-31T20:04:18.313Z,99518.97
2023-01-31T20:06:49.305Z,99523.25
2023-01-31T20:09:20.361Z,99523.75
2023-01-31T20:11:54.293Z,99522.63
2023-01-31T20:14:23.585Z,99528.13
2023-01-31T20:16:52.105Z,99534.03
2023-01-31T20:19:22.488Z,99538.22
2023-01-31T20:21:50.826Z,99534.75
2023-01-31T20:24:19.466Z,99537.94
2023-01-31T20:26:47.669Z,99541.13
2023-01-31T20:29:17.564Z,99542.50
2023-01-31T20:31:46.173Z,99542.31
2023-01-31T20:34:14.966Z,99537.72
2023-01-31T20:36:43.503Z,99540.41
2023-01-31T20:39:13.365Z,99534.88
2023-01-31T20:41:41.753Z,99544.81
2023-01-31T20:44:10.283Z,99544.66
2023-01-31T20:46:40.496Z,99543.38
2023-01-31T20:49:08.996Z,99545.06
2023-01-31T20:51:37.912Z,99545.56
2023-01-31T20:54:06.744Z,99551.53
2023-01-31T20:56:35.387Z,99549.47
2023-01-31T20:59:03.764Z,99553.41
2023-01-31T21:01:32.111Z,99544.88
2023-01-31T21:04:02.085Z,99547.06
2023-01-31T21:06:30.516Z,99554.03
2023-01-31T21:08:58.935Z,99567.72
2023-01-31T21:11:31.683Z,99562.69
2023-01-31T21:14:00.638Z,99564.53
2023-01-31T21:16:29.243Z,99559.19
2023-01-31T21:18:57.809Z,99562.19
2023-01-31T21:21:27.410Z,99555.59
2023-01-31T21:23:58.377Z,99557.19
2023-01-31T21:26:27.699Z,99555.09
2023-01-31T21:28:56.147Z,99555.44
2023-01-31T21:31:24.404Z,99559.84
2023-01-31T21:33:53.803Z,99557.38
2023-01-31T21:36:25.252Z,99563.03
2023-01-31T21:38:55.102Z,99567.00
2023-01-31T21:41:40.710Z,99567.78
2023-01-31T21:44:09.179Z,99562.75
2023-01-31T21:46:37.549Z,99558.97
2023-01-31T21:49:05.885Z,99565.72
2023-01-31T21:51:34.084Z,99563.53
2023-01-31T21:54:03.873Z,99565.91
2023-01-31T21:56:33.495Z,99560.53
2023-01-31T21:59:01.987Z,99552.19
2023-01-31T22:01:32.249Z,99569.84
2023-01-31T22:04:01.128Z,99551.09
2023-01-31T22:06:34.883Z,99552.88
2023-01-31T22:09:05.639Z,99553.66
2023-01-31T22:11:35.428Z,99568.00
2023-01-31T22:14:05.186Z,99555.50
2023-01-31T22:16:36.340Z,99562.91
2023-01-31T22:19:04.856Z,99562.75
2023-01-31T22:21:36.069Z,99564.94
2023-01-31T22:24:07.619Z,99578.84
2023-01-31T22:26:37.765Z,99572.81
2023-01-31T22:29:08.515Z,99577.94
2023-01-31T22:31:37.439Z,99574.00
2023-01-31T22:34:06.745Z,99577.88
2023-01-31T22:36:35.609Z,99585.47
2023-01-31T22:39:05.345Z,99586.13
2023-01-31T22:41:33.719Z,99589.09
2023-01-31T22:44:02.749Z,99579.50
2023-01-31T22:46:31.574Z,99587.94
2023-01-31T22:49:00.007Z,99592.00
2023-01-31T22:51:31.241Z,99590.94
2023-01-31T22:53:59.967Z,99592.09
2023-01-31T22:56:32.474Z,99596.41
2023-01-31T22:59:03.482Z,99597.47
2023-01-31T23:01:34.725Z,99595.28
2023-01-31T23:04:04.477Z,99595.59
2023-01-31T23:06:32.927Z,99603.34
2023-01-31T23:09:01.079Z,99601.16
2023-01-31T23:11:30.593Z,99605.22
2023-01-31T23:13:59.666Z,99605.03
2023-01-31T23:16:42.146Z,99601.34
2023-01-31T23:19:10.355Z,99607.50
2023-01-31T23:21:42.886Z,99604.03
2023-01-31T23:24:12.280Z,99609.13
2023-01-31T23:26:41.929Z,99613.00
2023-01-31T23:29:10.225Z,99611.28
2023-01-31T23:31:38.757Z,99602.06
2023-01-31T23:34:07.700Z,99607.31
2023-01-31T23:36:35.941Z,99609.31
2023-01-31T23:39:04.987Z,99610.91
2023-01-31T23:41:33.191Z,99606.34
2023-01-31T23:44:03.801Z,99608.72
2023-01-31T23:46:32.006Z,99606.53
2023-01-31T23:49:00.647Z,99603.84
2023-01-31T23:51:30.814Z,99618.53
2023-01-31T23:53:59.008Z,99614.47
2023-01-31T23:56:27.442Z,99618.72
2023-01-31T23:58:55.998Z,99617.66
